sensor_id;sensor_type;location;lat;lon;timestamp;P1;durP1;ratioP1;P2;durP2;ratioP2
62931;SDS011;49037;41.898;25.004;2022-07-22T00:00:38;4.88;;;4.38;;
62931;SDS011;49037;41.898;25.004;2022-07-22T00:03:03;10.00;;;4.65;;
62931;SDS011;49037;41.898;25.004;2022-07-22T00:05:29;6.03;;;4.88;;
62931;SDS011;49037;41.898;25.004;2022-07-22T00:07:54;5.57;;;4.50;;
62931;SDS011;49037;41.898;25.004;2022-07-22T00:10:20;5.15;;;4.60;;
62931;SDS011;49037;41.898;25.004;2022-07-22T00:12:45;5.95;;;4.63;;
62931;SDS011;49037;41.898;25.004;2022-07-22T00:15:11;6.35;;;4.63;;
62931;SDS011;49037;41.898;25.004;2022-07-22T00:17:36;6.18;;;4.45;;
62931;SDS011;49037;41.898;25.004;2022-07-22T00:20:03;5.80;;;4.82;;
62931;SDS011;49037;41.898;25.004;2022-07-22T00:22:30;7.85;;;4.80;;
62931;SDS011;49037;41.898;25.004;2022-07-22T00:24:55;10.20;;;5.03;;
62931;SDS011;49037;41.898;25.004;2022-07-22T00:27:21;7.28;;;4.85;;
62931;SDS011;49037;41.898;25.004;2022-07-22T00:32:06;5.45;;;4.60;;
62931;SDS011;49037;41.898;25.004;2022-07-22T00:35:32;6.70;;;5.40;;
62931;SDS011;49037;41.898;25.004;2022-07-22T00:39:37;6.15;;;4.78;;
62931;SDS011;49037;41.898;25.004;2022-07-22T00:42:03;6.53;;;4.68;;
62931;SDS011;49037;41.898;25.004;2022-07-22T00:44:28;5.45;;;4.88;;
62931;SDS011;49037;41.898;25.004;2022-07-22T00:46:54;7.82;;;4.43;;
62931;SDS011;49037;41.898;25.004;2022-07-22T00:49:19;6.88;;;5.00;;
62931;SDS011;49037;41.898;25.004;2022-07-22T00:51:45;8.43;;;4.65;;
62931;SDS011;49037;41.898;25.004;2022-07-22T00:54:14;5.63;;;4.70;;
62931;SDS011;49037;41.898;25.004;2022-07-22T00:56:40;6.90;;;4.85;;
62931;SDS011;49037;41.898;25.004;2022-07-22T00:59:08;6.22;;;4.70;;
62931;SDS011;49037;41.898;25.004;2022-07-22T01:04:06;7.55;;;5.00;;
62931;SDS011;49037;41.898;25.004;2022-07-22T01:06:32;7.57;;;5.07;;
62931;SDS011;49037;41.898;25.004;2022-07-22T01:08:58;6.82;;;4.65;;
62931;SDS011;49037;41.898;25.004;2022-07-22T01:11:24;6.63;;;4.55;;
62931;SDS011;49037;41.898;25.004;2022-07-22T01:13:51;5.55;;;4.88;;
62931;SDS011;49037;41.898;25.004;2022-07-22T01:16:18;6.90;;;4.60;;
62931;SDS011;49037;41.898;25.004;2022-07-22T01:18:43;5.57;;;4.03;;
62931;SDS011;49037;41.898;25.004;2022-07-22T01:21:10;6.35;;;4.93;;
62931;SDS011;49037;41.898;25.004;2022-07-22T01:23:36;7.50;;;4.85;;
62931;SDS011;49037;41.898;25.004;2022-07-22T01:26:03;5.57;;;4.45;;
62931;SDS011;49037;41.898;25.004;2022-07-22T01:28:29;6.57;;;4.78;;
62931;SDS011;49037;41.898;25.004;2022-07-22T01:30:55;7.97;;;4.93;;
62931;SDS011;49037;41.898;25.004;2022-07-22T01:34:25;5.00;;;4.50;;
62931;SDS011;49037;41.898;25.004;2022-07-22T01:36:50;6.95;;;4.50;;
62931;SDS011;49037;41.898;25.004;2022-07-22T01:39:16;5.30;;;4.80;;
62931;SDS011;49037;41.898;25.004;2022-07-22T01:41:42;7.60;;;4.72;;
62931;SDS011;49037;41.898;25.004;2022-07-22T01:45:37;6.85;;;4.47;;
62931;SDS011;49037;41.898;25.004;2022-07-22T01:48:03;6.28;;;5.22;;
62931;SDS011;49037;41.898;25.004;2022-07-22T01:50:28;5.28;;;4.47;;
62931;SDS011;49037;41.898;25.004;2022-07-22T01:52:54;5.55;;;4.70;;
62931;SDS011;49037;41.898;25.004;2022-07-22T01:55:20;6.22;;;4.63;;
62931;SDS011;49037;41.898;25.004;2022-07-22T01:57:46;5.65;;;5.05;;
62931;SDS011;49037;41.898;25.004;2022-07-22T02:00:12;5.93;;;4.60;;
62931;SDS011;49037;41.898;25.004;2022-07-22T02:02:37;6.63;;;4.63;;
62931;SDS011;49037;41.898;25.004;2022-07-22T02:05:04;5.18;;;4.68;;
62931;SDS011;49037;41.898;25.004;2022-07-22T02:07:33;5.60;;;4.60;;
62931;SDS011;49037;41.898;25.004;2022-07-22T02:09:58;5.50;;;4.97;;
62931;SDS011;49037;41.898;25.004;2022-07-22T02:12:35;5.65;;;5.00;;
62931;SDS011;49037;41.898;25.004;2022-07-22T02:15:03;6.63;;;4.85;;
62931;SDS011;49037;41.898;25.004;2022-07-22T02:17:32;6.22;;;4.63;;
62931;SDS011;49037;41.898;25.004;2022-07-22T02:19:59;7.75;;;5.20;;
62931;SDS011;49037;41.898;25.004;2022-07-22T02:22:24;5.40;;;4.70;;
62931;SDS011;49037;41.898;25.004;2022-07-22T02:24:49;8.45;;;4.95;;
62931;SDS011;49037;41.898;25.004;2022-07-22T02:27:15;6.82;;;4.70;;
62931;SDS011;49037;41.898;25.004;2022-07-22T02:29:40;6.63;;;4.53;;
62931;SDS011;49037;41.898;25.004;2022-07-22T02:32:06;5.40;;;4.47;;
62931;SDS011;49037;41.898;25.004;2022-07-22T02:34:31;6.68;;;5.28;;
62931;SDS011;49037;41.898;25.004;2022-07-22T02:36:57;5.93;;;4.93;;
62931;SDS011;49037;41.898;25.004;2022-07-22T02:39:22;5.40;;;4.53;;
62931;SDS011;49037;41.898;25.004;2022-07-22T02:42:27;7.88;;;5.00;;
62931;SDS011;49037;41.898;25.004;2022-07-22T02:44:52;5.60;;;5.00;;
62931;SDS011;49037;41.898;25.004;2022-07-22T02:49:37;7.28;;;4.93;;
62931;SDS011;49037;41.898;25.004;2022-07-22T02:52:03;7.95;;;4.97;;
62931;SDS011;49037;41.898;25.004;2022-07-22T02:54:28;6.13;;;4.93;;
62931;SDS011;49037;41.898;25.004;2022-07-22T02:56:54;4.88;;;4.22;;
62931;SDS011;49037;41.898;25.004;2022-07-22T02:59:19;7.93;;;4.80;;
62931;SDS011;49037;41.898;25.004;2022-07-22T03:01:45;7.80;;;4.95;;
62931;SDS011;49037;41.898;25.004;2022-07-22T03:04:10;7.85;;;5.18;;
62931;SDS011;49037;41.898;25.004;2022-07-22T03:06:36;7.38;;;4.78;;
62931;SDS011;49037;41.898;25.004;2022-07-22T03:09:01;8.00;;;4.90;;
62931;SDS011;49037;41.898;25.004;2022-07-22T03:11:37;6.65;;;4.97;;
62931;SDS011;49037;41.898;25.004;2022-07-22T03:14:03;6.18;;;4.30;;
62931;SDS011;49037;41.898;25.004;2022-07-22T03:16:28;5.20;;;4.43;;
62931;SDS011;49037;41.898;25.004;2022-07-22T03:18:54;6.85;;;5.00;;
62931;SDS011;49037;41.898;25.004;2022-07-22T03:21:19;7.03;;;4.90;;
62931;SDS011;49037;41.898;25.004;2022-07-22T03:23:45;6.32;;;4.97;;
62931;SDS011;49037;41.898;25.004;2022-07-22T03:26:10;6.75;;;4.55;;
62931;SDS011;49037;41.898;25.004;2022-07-22T03:28:36;5.75;;;4.53;;
62931;SDS011;49037;41.898;25.004;2022-07-22T03:31:01;4.82;;;4.30;;
62931;SDS011;49037;41.898;25.004;2022-07-22T03:33:27;7.20;;;4.72;;
62931;SDS011;49037;41.898;25.004;2022-07-22T03:35:52;7.55;;;4.75;;
62931;SDS011;49037;41.898;25.004;2022-07-22T03:38:17;5.10;;;4.60;;
62931;SDS011;49037;41.898;25.004;2022-07-22T03:40:43;6.65;;;4.47;;
62931;SDS011;49037;41.898;25.004;2022-07-22T03:43:08;7.38;;;5.13;;
62931;SDS011;49037;41.898;25.004;2022-07-22T03:45:34;5.88;;;4.82;;
62931;SDS011;49037;41.898;25.004;2022-07-22T03:47:59;7.53;;;4.40;;
62931;SDS011;49037;41.898;25.004;2022-07-22T03:50:25;7.18;;;4.40;;
62931;SDS011;49037;41.898;25.004;2022-07-22T03:52:51;7.03;;;4.50;;
62931;SDS011;49037;41.898;25.004;2022-07-22T03:56:21;6.50;;;5.38;;
62931;SDS011;49037;41.898;25.004;2022-07-22T03:58:50;6.60;;;4.75;;
62931;SDS011;49037;41.898;25.004;2022-07-22T04:02:52;5.55;;;4.68;;
62931;SDS011;49037;41.898;25.004;2022-07-22T04:07:23;8.13;;;4.80;;
62931;SDS011;49037;41.898;25.004;2022-07-22T04:09:49;7.97;;;4.68;;
62931;SDS011;49037;41.898;25.004;2022-07-22T04:12:14;4.78;;;4.25;;
62931;SDS011;49037;41.898;25.004;2022-07-22T04:14:40;10.68;;;5.07;;
62931;SDS011;49037;41.898;25.004;2022-07-22T04:17:08;6.07;;;4.60;;
62931;SDS011;49037;41.898;25.004;2022-07-22T04:19:39;7.85;;;4.88;;
62931;SDS011;49037;41.898;25.004;2022-07-22T04:22:14;8.48;;;4.53;;
62931;SDS011;49037;41.898;25.004;2022-07-22T04:26:11;6.65;;;5.22;;
62931;SDS011;49037;41.898;25.004;2022-07-22T04:28:36;7.22;;;5.05;;
62931;SDS011;49037;41.898;25.004;2022-07-22T04:31:02;7.05;;;5.50;;
62931;SDS011;49037;41.898;25.004;2022-07-22T04:33:33;6.75;;;4.70;;
62931;SDS011;49037;41.898;25.004;2022-07-22T04:35:59;6.18;;;5.13;;
62931;SDS011;49037;41.898;25.004;2022-07-22T04:38:25;7.57;;;4.97;;
62931;SDS011;49037;41.898;25.004;2022-07-22T04:40:53;9.20;;;5.07;;
62931;SDS011;49037;41.898;25.004;2022-07-22T04:43:18;7.00;;;4.72;;
62931;SDS011;49037;41.898;25.004;2022-07-22T04:45:44;6.03;;;4.78;;
62931;SDS011;49037;41.898;25.004;2022-07-22T04:48:12;6.38;;;5.40;;
62931;SDS011;49037;41.898;25.004;2022-07-22T04:51:20;5.18;;;4.63;;
62931;SDS011;49037;41.898;25.004;2022-07-22T04:53:45;5.97;;;5.00;;
62931;SDS011;49037;41.898;25.004;2022-07-22T04:56:10;7.45;;;4.80;;
62931;SDS011;49037;41.898;25.004;2022-07-22T04:58:38;8.70;;;4.90;;
62931;SDS011;49037;41.898;25.004;2022-07-22T05:01:04;7.95;;;5.10;;
62931;SDS011;49037;41.898;25.004;2022-07-22T05:05:35;6.20;;;5.00;;
62931;SDS011;49037;41.898;25.004;2022-07-22T05:08:01;8.38;;;5.68;;
62931;SDS011;49037;41.898;25.004;2022-07-22T05:10:27;10.07;;;6.22;;
62931;SDS011;49037;41.898;25.004;2022-07-22T05:20:04;10.60;;;5.70;;
62931;SDS011;49037;41.898;25.004;2022-07-22T05:22:30;12.05;;;6.80;;
62931;SDS011;49037;41.898;25.004;2022-07-22T05:24:56;10.57;;;6.05;;
62931;SDS011;49037;41.898;25.004;2022-07-22T05:27:22;8.38;;;6.25;;
62931;SDS011;49037;41.898;25.004;2022-07-22T05:31:20;9.68;;;5.43;;
62931;SDS011;49037;41.898;25.004;2022-07-22T05:33:46;8.02;;;5.55;;
62931;SDS011;49037;41.898;25.004;2022-07-22T05:36:11;9.57;;;5.45;;
62931;SDS011;49037;41.898;25.004;2022-07-22T05:38:37;13.00;;;5.68;;
62931;SDS011;49037;41.898;25.004;2022-07-22T05:41:50;7.63;;;5.63;;
62931;SDS011;49037;41.898;25.004;2022-07-22T05:44:16;7.18;;;5.60;;
62931;SDS011;49037;41.898;25.004;2022-07-22T05:46:42;11.98;;;5.97;;
62931;SDS011;49037;41.898;25.004;2022-07-22T05:49:07;10.95;;;6.00;;
62931;SDS011;49037;41.898;25.004;2022-07-22T05:51:42;7.95;;;5.43;;
62931;SDS011;49037;41.898;25.004;2022-07-22T05:54:07;8.40;;;5.90;;
62931;SDS011;49037;41.898;25.004;2022-07-22T05:56:32;8.98;;;6.15;;
62931;SDS011;49037;41.898;25.004;2022-07-22T05:58:58;8.32;;;5.68;;
62931;SDS011;49037;41.898;25.004;2022-07-22T06:01:24;7.70;;;5.60;;
62931;SDS011;49037;41.898;25.004;2022-07-22T06:03:50;7.90;;;5.97;;
62931;SDS011;49037;41.898;25.004;2022-07-22T06:06:15;9.02;;;5.60;;
62931;SDS011;49037;41.898;25.004;2022-07-22T06:10:59;10.75;;;5.70;;
62931;SDS011;49037;41.898;25.004;2022-07-22T06:13:25;9.02;;;5.70;;
62931;SDS011;49037;41.898;25.004;2022-07-22T06:15:51;8.88;;;5.47;;
62931;SDS011;49037;41.898;25.004;2022-07-22T06:18:17;8.65;;;5.78;;
62931;SDS011;49037;41.898;25.004;2022-07-22T06:20:43;7.93;;;5.82;;
62931;SDS011;49037;41.898;25.004;2022-07-22T06:23:09;8.18;;;5.30;;
62931;SDS011;49037;41.898;25.004;2022-07-22T06:25:34;8.82;;;5.85;;
62931;SDS011;49037;41.898;25.004;2022-07-22T06:27:59;9.25;;;5.60;;
62931;SDS011;49037;41.898;25.004;2022-07-22T06:32:54;9.15;;;6.07;;
62931;SDS011;49037;41.898;25.004;2022-07-22T06:35:19;8.18;;;5.68;;
62931;SDS011;49037;41.898;25.004;2022-07-22T06:37:45;7.32;;;5.55;;
62931;SDS011;49037;41.898;25.004;2022-07-22T06:40:11;7.80;;;5.50;;
62931;SDS011;49037;41.898;25.004;2022-07-22T06:42:37;8.50;;;5.25;;
62931;SDS011;49037;41.898;25.004;2022-07-22T06:45:03;12.52;;;5.05;;
62931;SDS011;49037;41.898;25.004;2022-07-22T06:47:29;8.73;;;5.38;;
62931;SDS011;49037;41.898;25.004;2022-07-22T06:49:55;7.97;;;5.00;;
62931;SDS011;49037;41.898;25.004;2022-07-22T06:54:15;7.53;;;5.03;;
62931;SDS011;49037;41.898;25.004;2022-07-22T06:56:40;9.35;;;5.60;;
62931;SDS011;49037;41.898;25.004;2022-07-22T06:59:05;5.43;;;4.68;;
62931;SDS011;49037;41.898;25.004;2022-07-22T07:01:31;8.90;;;5.00;;
62931;SDS011;49037;41.898;25.004;2022-07-22T07:03:56;7.22;;;5.18;;
62931;SDS011;49037;41.898;25.004;2022-07-22T07:06:22;6.82;;;5.10;;
62931;SDS011;49037;41.898;25.004;2022-07-22T07:08:47;6.15;;;5.13;;
62931;SDS011;49037;41.898;25.004;2022-07-22T07:11:13;6.25;;;4.88;;
62931;SDS011;49037;41.898;25.004;2022-07-22T07:13:39;7.35;;;5.05;;
62931;SDS011;49037;41.898;25.004;2022-07-22T07:16:04;5.40;;;4.53;;
62931;SDS011;49037;41.898;25.004;2022-07-22T07:18:30;8.68;;;5.20;;
62931;SDS011;49037;41.898;25.004;2022-07-22T07:20:55;6.15;;;4.70;;
62931;SDS011;49037;41.898;25.004;2022-07-22T07:23:33;9.57;;;5.13;;
62931;SDS011;49037;41.898;25.004;2022-07-22T07:25:58;7.35;;;5.57;;
62931;SDS011;49037;41.898;25.004;2022-07-22T07:28:40;6.50;;;5.30;;
62931;SDS011;49037;41.898;25.004;2022-07-22T07:31:09;5.88;;;5.25;;
62931;SDS011;49037;41.898;25.004;2022-07-22T07:33:34;8.63;;;5.43;;
62931;SDS011;49037;41.898;25.004;2022-07-22T07:36:00;5.97;;;5.38;;
62931;SDS011;49037;41.898;25.004;2022-07-22T07:38:26;6.47;;;5.20;;
62931;SDS011;49037;41.898;25.004;2022-07-22T07:40:51;6.68;;;5.28;;
62931;SDS011;49037;41.898;25.004;2022-07-22T07:43:19;8.50;;;5.88;;
62931;SDS011;49037;41.898;25.004;2022-07-22T07:45:45;5.88;;;5.25;;
62931;SDS011;49037;41.898;25.004;2022-07-22T07:48:11;9.38;;;5.35;;
62931;SDS011;49037;41.898;25.004;2022-07-22T07:50:36;6.00;;;5.30;;
62931;SDS011;49037;41.898;25.004;2022-07-22T07:53:04;6.68;;;5.28;;
62931;SDS011;49037;41.898;25.004;2022-07-22T07:55:40;9.98;;;5.60;;
62931;SDS011;49037;41.898;25.004;2022-07-22T07:58:09;6.70;;;4.80;;
62931;SDS011;49037;41.898;25.004;2022-07-22T08:00:34;5.55;;;5.00;;
62931;SDS011;49037;41.898;25.004;2022-07-22T08:03:02;6.40;;;5.60;;
62931;SDS011;49037;41.898;25.004;2022-07-22T08:05:45;6.20;;;5.18;;
62931;SDS011;49037;41.898;25.004;2022-07-22T08:08:31;7.40;;;5.53;;
62931;SDS011;49037;41.898;25.004;2022-07-22T08:10:59;6.30;;;5.35;;
62931;SDS011;49037;41.898;25.004;2022-07-22T08:16:28;7.50;;;5.32;;
62931;SDS011;49037;41.898;25.004;2022-07-22T08:18:54;7.38;;;5.70;;
62931;SDS011;49037;41.898;25.004;2022-07-22T08:21:19;10.77;;;6.10;;
62931;SDS011;49037;41.898;25.004;2022-07-22T08:23:47;7.70;;;5.68;;
62931;SDS011;49037;41.898;25.004;2022-07-22T08:26:16;6.00;;;5.30;;
62931;SDS011;49037;41.898;25.004;2022-07-22T08:28:44;8.98;;;5.18;;
62931;SDS011;49037;41.898;25.004;2022-07-22T08:31:10;10.15;;;5.63;;
62931;SDS011;49037;41.898;25.004;2022-07-22T08:33:36;9.07;;;5.95;;
62931;SDS011;49037;41.898;25.004;2022-07-22T08:36:05;6.10;;;5.50;;
62931;SDS011;49037;41.898;25.004;2022-07-22T08:38:32;7.03;;;5.57;;
62931;SDS011;49037;41.898;25.004;2022-07-22T08:40:58;6.68;;;5.53;;
62931;SDS011;49037;41.898;25.004;2022-07-22T08:43:25;7.80;;;5.82;;
62931;SDS011;49037;41.898;25.004;2022-07-22T08:45:51;7.38;;;6.07;;
62931;SDS011;49037;41.898;25.004;2022-07-22T08:48:19;7.10;;;5.25;;
62931;SDS011;49037;41.898;25.004;2022-07-22T08:50:45;8.25;;;6.00;;
62931;SDS011;49037;41.898;25.004;2022-07-22T08:53:11;8.25;;;5.60;;
62931;SDS011;49037;41.898;25.004;2022-07-22T08:55:55;7.15;;;5.95;;
62931;SDS011;49037;41.898;25.004;2022-07-22T08:58:21;7.32;;;5.85;;
62931;SDS011;49037;41.898;25.004;2022-07-22T09:00:46;6.47;;;5.57;;
62931;SDS011;49037;41.898;25.004;2022-07-22T09:03:30;9.15;;;6.00;;
62931;SDS011;49037;41.898;25.004;2022-07-22T09:05:56;7.03;;;5.80;;
62931;SDS011;49037;41.898;25.004;2022-07-22T09:08:21;8.57;;;6.40;;
62931;SDS011;49037;41.898;25.004;2022-07-22T09:10:48;8.73;;;5.60;;
62931;SDS011;49037;41.898;25.004;2022-07-22T09:13:14;6.88;;;6.22;;
62931;SDS011;49037;41.898;25.004;2022-07-22T09:15:53;8.70;;;5.70;;
62931;SDS011;49037;41.898;25.004;2022-07-22T09:18:20;7.88;;;5.82;;
62931;SDS011;49037;41.898;25.004;2022-07-22T09:20:46;7.47;;;5.80;;
62931;SDS011;49037;41.898;25.004;2022-07-22T09:23:15;9.38;;;6.00;;
62931;SDS011;49037;41.898;25.004;2022-07-22T09:25:47;9.45;;;6.13;;
62931;SDS011;49037;41.898;25.004;2022-07-22T09:28:14;7.90;;;6.03;;
62931;SDS011;49037;41.898;25.004;2022-07-22T09:30:48;9.15;;;6.05;;
62931;SDS011;49037;41.898;25.004;2022-07-22T09:33:27;7.72;;;6.18;;
62931;SDS011;49037;41.898;25.004;2022-07-22T09:36:01;10.50;;;5.93;;
62931;SDS011;49037;41.898;25.004;2022-07-22T09:38:33;10.00;;;6.13;;
62931;SDS011;49037;41.898;25.004;2022-07-22T09:41:06;12.02;;;6.13;;
62931;SDS011;49037;41.898;25.004;2022-07-22T09:43:34;8.05;;;6.28;;
62931;SDS011;49037;41.898;25.004;2022-07-22T09:48:26;7.30;;;6.00;;
62931;SDS011;49037;41.898;25.004;2022-07-22T09:50:52;9.18;;;6.55;;
62931;SDS011;49037;41.898;25.004;2022-07-22T09:53:21;10.30;;;6.03;;
62931;SDS011;49037;41.898;25.004;2022-07-22T09:55:53;10.10;;;6.72;;
62931;SDS011;49037;41.898;25.004;2022-07-22T09:58:19;8.25;;;6.70;;
62931;SDS011;49037;41.898;25.004;2022-07-22T10:00:45;9.60;;;6.68;;
62931;SDS011;49037;41.898;25.004;2022-07-22T10:03:17;13.27;;;7.22;;
62931;SDS011;49037;41.898;25.004;2022-07-22T10:05:43;10.10;;;7.43;;
62931;SDS011;49037;41.898;25.004;2022-07-22T10:08:10;12.73;;;7.47;;
62931;SDS011;49037;41.898;25.004;2022-07-22T10:10:38;15.57;;;7.68;;
62931;SDS011;49037;41.898;25.004;2022-07-22T10:13:04;15.32;;;7.78;;
62931;SDS011;49037;41.898;25.004;2022-07-22T10:15:31;11.90;;;7.57;;
62931;SDS011;49037;41.898;25.004;2022-07-22T10:17:59;8.60;;;7.22;;
62931;SDS011;49037;41.898;25.004;2022-07-22T10:20:29;10.30;;;7.60;;
62931;SDS011;49037;41.898;25.004;2022-07-22T10:22:56;13.73;;;8.32;;
62931;SDS011;49037;41.898;25.004;2022-07-22T10:25:23;12.45;;;9.05;;
62931;SDS011;49037;41.898;25.004;2022-07-22T10:30:22;13.48;;;8.82;;
62931;SDS011;49037;41.898;25.004;2022-07-22T10:35:30;14.07;;;8.45;;
62931;SDS011;49037;41.898;25.004;2022-07-22T10:37:58;15.80;;;9.63;;
62931;SDS011;49037;41.898;25.004;2022-07-22T10:40:29;15.13;;;8.88;;
62931;SDS011;49037;41.898;25.004;2022-07-22T10:48:20;12.10;;;7.45;;
62931;SDS011;49037;41.898;25.004;2022-07-22T10:51:11;13.82;;;7.13;;
62931;SDS011;49037;41.898;25.004;2022-07-22T10:53:52;10.48;;;7.22;;
62931;SDS011;49037;41.898;25.004;2022-07-22T10:56:29;8.85;;;7.15;;
62931;SDS011;49037;41.898;25.004;2022-07-22T11:01:40;11.10;;;7.72;;
62931;SDS011;49037;41.898;25.004;2022-07-22T11:04:18;9.65;;;7.57;;
62931;SDS011;49037;41.898;25.004;2022-07-22T11:06:47;9.75;;;7.40;;
62931;SDS011;49037;41.898;25.004;2022-07-22T11:09:14;9.98;;;6.60;;
62931;SDS011;49037;41.898;25.004;2022-07-22T11:14:13;12.60;;;7.40;;
62931;SDS011;49037;41.898;25.004;2022-07-22T11:16:43;12.63;;;6.53;;
62931;SDS011;49037;41.898;25.004;2022-07-22T11:19:10;10.90;;;6.95;;
62931;SDS011;49037;41.898;25.004;2022-07-22T11:21:36;11.00;;;7.05;;
62931;SDS011;49037;41.898;25.004;2022-07-22T11:24:03;11.00;;;7.25;;
62931;SDS011;49037;41.898;25.004;2022-07-22T11:26:40;12.05;;;7.15;;
62931;SDS011;49037;41.898;25.004;2022-07-22T11:29:09;14.77;;;6.97;;
62931;SDS011;49037;41.898;25.004;2022-07-22T11:31:36;8.60;;;7.13;;
62931;SDS011;49037;41.898;25.004;2022-07-22T11:34:10;13.13;;;7.00;;
62931;SDS011;49037;41.898;25.004;2022-07-22T11:36:43;12.63;;;6.90;;
62931;SDS011;49037;41.898;25.004;2022-07-22T11:39:11;14.43;;;6.75;;
62931;SDS011;49037;41.898;25.004;2022-07-22T11:44:28;8.15;;;6.65;;
62931;SDS011;49037;41.898;25.004;2022-07-22T11:46:57;10.45;;;6.88;;
62931;SDS011;49037;41.898;25.004;2022-07-22T11:49:24;8.65;;;5.57;;
62931;SDS011;49037;41.898;25.004;2022-07-22T11:51:51;10.32;;;5.80;;
62931;SDS011;49037;41.898;25.004;2022-07-22T11:54:17;8.02;;;6.15;;
62931;SDS011;49037;41.898;25.004;2022-07-22T11:56:52;9.18;;;6.22;;
62931;SDS011;49037;41.898;25.004;2022-07-22T11:59:21;11.73;;;6.38;;
62931;SDS011;49037;41.898;25.004;2022-07-22T12:01:48;6.55;;;5.47;;
62931;SDS011;49037;41.898;25.004;2022-07-22T12:04:14;7.05;;;5.32;;
62931;SDS011;49037;41.898;25.004;2022-07-22T12:06:43;8.05;;;5.05;;
62931;SDS011;49037;41.898;25.004;2022-07-22T12:11:45;7.55;;;5.60;;
62931;SDS011;49037;41.898;25.004;2022-07-22T12:14:14;7.18;;;5.32;;
62931;SDS011;49037;41.898;25.004;2022-07-22T12:16:42;6.22;;;5.50;;
62931;SDS011;49037;41.898;25.004;2022-07-22T12:19:20;7.32;;;5.07;;
62931;SDS011;49037;41.898;25.004;2022-07-22T12:24:32;8.63;;;5.72;;
62931;SDS011;49037;41.898;25.004;2022-07-22T12:27:16;6.40;;;4.85;;
62931;SDS011;49037;41.898;25.004;2022-07-22T12:29:44;8.38;;;4.95;;
62931;SDS011;49037;41.898;25.004;2022-07-22T12:32:14;6.78;;;4.88;;
62931;SDS011;49037;41.898;25.004;2022-07-22T12:34:47;5.05;;;4.55;;
62931;SDS011;49037;41.898;25.004;2022-07-22T12:37:22;7.20;;;5.05;;
62931;SDS011;49037;41.898;25.004;2022-07-22T12:42:21;8.25;;;5.28;;
62931;SDS011;49037;41.898;25.004;2022-07-22T12:50:28;10.20;;;5.05;;
62931;SDS011;49037;41.898;25.004;2022-07-22T12:53:11;9.18;;;4.85;;
62931;SDS011;49037;41.898;25.004;2022-07-22T12:55:48;6.68;;;4.93;;
62931;SDS011;49037;41.898;25.004;2022-07-22T12:58:20;6.57;;;5.13;;
62931;SDS011;49037;41.898;25.004;2022-07-22T13:00:50;5.80;;;5.25;;
62931;SDS011;49037;41.898;25.004;2022-07-22T13:03:17;7.32;;;5.15;;
62931;SDS011;49037;41.898;25.004;2022-07-22T13:05:44;6.05;;;5.45;;
62931;SDS011;49037;41.898;25.004;2022-07-22T13:08:11;5.88;;;5.30;;
62931;SDS011;49037;41.898;25.004;2022-07-22T13:10:37;6.65;;;4.78;;
62931;SDS011;49037;41.898;25.004;2022-07-22T13:13:02;6.85;;;5.32;;
62931;SDS011;49037;41.898;25.004;2022-07-22T13:15:28;7.25;;;5.25;;
62931;SDS011;49037;41.898;25.004;2022-07-22T13:17:53;5.97;;;4.47;;
62931;SDS011;49037;41.898;25.004;2022-07-22T13:20:19;6.50;;;4.68;;
62931;SDS011;49037;41.898;25.004;2022-07-22T13:22:48;9.73;;;5.03;;
62931;SDS011;49037;41.898;25.004;2022-07-22T13:25:14;6.05;;;4.68;;
62931;SDS011;49037;41.898;25.004;2022-07-22T13:27:39;5.78;;;4.63;;
62931;SDS011;49037;41.898;25.004;2022-07-22T13:30:06;6.85;;;5.10;;
62931;SDS011;49037;41.898;25.004;2022-07-22T13:32:32;7.45;;;5.30;;
62931;SDS011;49037;41.898;25.004;2022-07-22T13:34:58;7.07;;;4.30;;
62931;SDS011;49037;41.898;25.004;2022-07-22T13:37:23;6.65;;;4.50;;
62931;SDS011;49037;41.898;25.004;2022-07-22T13:39:49;6.35;;;4.72;;
62931;SDS011;49037;41.898;25.004;2022-07-22T13:42:15;5.20;;;4.53;;
62931;SDS011;49037;41.898;25.004;2022-07-22T13:44:43;5.18;;;4.57;;
62931;SDS011;49037;41.898;25.004;2022-07-22T13:47:12;5.18;;;4.78;;
62931;SDS011;49037;41.898;25.004;2022-07-22T13:49:39;6.15;;;5.05;;
62931;SDS011;49037;41.898;25.004;2022-07-22T13:52:04;6.55;;;4.53;;
62931;SDS011;49037;41.898;25.004;2022-07-22T13:54:31;6.80;;;4.70;;
62931;SDS011;49037;41.898;25.004;2022-07-22T13:56:57;7.35;;;5.03;;
62931;SDS011;49037;41.898;25.004;2022-07-22T13:59:30;5.57;;;4.72;;
62931;SDS011;49037;41.898;25.004;2022-07-22T14:02:02;5.05;;;4.63;;
62931;SDS011;49037;41.898;25.004;2022-07-22T14:04:30;5.80;;;5.07;;
62931;SDS011;49037;41.898;25.004;2022-07-22T14:06:56;5.43;;;4.93;;
62931;SDS011;49037;41.898;25.004;2022-07-22T14:09:25;8.02;;;5.43;;
62931;SDS011;49037;41.898;25.004;2022-07-22T14:11:51;6.75;;;4.60;;
62931;SDS011;49037;41.898;25.004;2022-07-22T14:14:19;8.98;;;5.35;;
62931;SDS011;49037;41.898;25.004;2022-07-22T14:16:47;7.88;;;4.95;;
62931;SDS011;49037;41.898;25.004;2022-07-22T14:19:13;6.15;;;4.78;;
62931;SDS011;49037;41.898;25.004;2022-07-22T14:21:40;7.13;;;5.53;;
62931;SDS011;49037;41.898;25.004;2022-07-22T14:24:08;12.25;;;5.38;;
62931;SDS011;49037;41.898;25.004;2022-07-22T14:26:34;6.20;;;4.57;;
62931;SDS011;49037;41.898;25.004;2022-07-22T14:29:01;7.80;;;5.38;;
62931;SDS011;49037;41.898;25.004;2022-07-22T14:31:26;7.60;;;5.03;;
62931;SDS011;49037;41.898;25.004;2022-07-22T14:33:53;9.48;;;5.25;;
62931;SDS011;49037;41.898;25.004;2022-07-22T14:36:19;8.77;;;5.25;;
62931;SDS011;49037;41.898;25.004;2022-07-22T14:38:44;6.13;;;4.93;;
62931;SDS011;49037;41.898;25.004;2022-07-22T14:41:10;6.20;;;5.00;;
62931;SDS011;49037;41.898;25.004;2022-07-22T14:43:36;7.18;;;5.35;;
62931;SDS011;49037;41.898;25.004;2022-07-22T14:46:02;7.18;;;4.85;;
62931;SDS011;49037;41.898;25.004;2022-07-22T14:48:29;7.05;;;5.25;;
62931;SDS011;49037;41.898;25.004;2022-07-22T14:50:55;7.88;;;5.32;;
62931;SDS011;49037;41.898;25.004;2022-07-22T14:53:26;8.02;;;5.30;;
62931;SDS011;49037;41.898;25.004;2022-07-22T14:55:52;10.35;;;5.35;;
62931;SDS011;49037;41.898;25.004;2022-07-22T14:58:17;7.47;;;5.53;;
62931;SDS011;49037;41.898;25.004;2022-07-22T15:00:43;7.97;;;5.32;;
62931;SDS011;49037;41.898;25.004;2022-07-22T15:03:09;8.70;;;5.38;;
62931;SDS011;49037;41.898;25.004;2022-07-22T15:05:35;8.98;;;5.15;;
62931;SDS011;49037;41.898;25.004;2022-07-22T15:08:00;7.20;;;5.30;;
62931;SDS011;49037;41.898;25.004;2022-07-22T15:10:26;7.60;;;5.28;;
62931;SDS011;49037;41.898;25.004;2022-07-22T15:12:51;7.20;;;5.68;;
62931;SDS011;49037;41.898;25.004;2022-07-22T15:15:16;7.53;;;5.07;;
62931;SDS011;49037;41.898;25.004;2022-07-22T15:17:42;10.13;;;5.63;;
62931;SDS011;49037;41.898;25.004;2022-07-22T15:20:11;9.07;;;5.97;;
62931;SDS011;49037;41.898;25.004;2022-07-22T15:22:37;7.82;;;5.10;;
62931;SDS011;49037;41.898;25.004;2022-07-22T15:25:03;9.63;;;5.95;;
62931;SDS011;49037;41.898;25.004;2022-07-22T15:27:31;6.32;;;5.53;;
62931;SDS011;49037;41.898;25.004;2022-07-22T15:29:57;8.43;;;5.68;;
62931;SDS011;49037;41.898;25.004;2022-07-22T15:32:22;8.63;;;5.22;;
62931;SDS011;49037;41.898;25.004;2022-07-22T15:34:48;10.73;;;5.70;;
62931;SDS011;49037;41.898;25.004;2022-07-22T15:37:13;6.97;;;5.57;;
62931;SDS011;49037;41.898;25.004;2022-07-22T15:39:44;9.90;;;5.63;;
62931;SDS011;49037;41.898;25.004;2022-07-22T15:42:11;7.63;;;5.40;;
62931;SDS011;49037;41.898;25.004;2022-07-22T15:44:39;12.02;;;6.07;;
62931;SDS011;49037;41.898;25.004;2022-07-22T15:47:05;8.32;;;5.53;;
62931;SDS011;49037;41.898;25.004;2022-07-22T15:49:31;8.70;;;5.40;;